Onega, Russia
Current Conditions -  °F | °C
As of 9:00 PM on Thursday 29 Jan 2015 (Local Time) from ULAA Reporting Station
Snow Showers Snow Showers  
Wind Chill: 21°   Ceiling: 800
Heat Index: 28°   Visibility: 1.8mi
Dew Point: 28°   Wind: 7mph
Humidity: 100%   Direction: 240°WSW
Pressure: 29.41"   Gusts: NA
Location:  63.92°N, 38.08°E
Report Text: ULAA 291800Z 24003MPS 200V270 2900 -SHSN OVC008CB M02/M02 Q0996 26590835 TEMPO 0500 +SHSN BKN003CB RMK QFE745/0994
Loading
Personal Weather Stations






























Interactive Weather Map New forecast layout! Learn more

10-Day Weather Forecast

Advertisements
Track Severe Weather on mobile